createdAt,value
2023-05-11T00:01:10.059Z,100749.69
2023-05-11T00:03:38.648Z,100742.50
2023-05-11T00:06:06.323Z,100739.44
2023-05-11T00:08:34.228Z,100735.13
2023-05-11T00:11:01.798Z,100746.16
2023-05-11T00:13:29.733Z,100737.25
2023-05-11T00:15:57.699Z,100729.38
2023-05-11T00:18:26.059Z,100739.72
2023-05-11T00:20:54.276Z,100738.19
2023-05-11T00:23:22.204Z,100744.22
2023-05-11T00:25:49.838Z,100742.75
2023-05-11T00:28:17.717Z,100741.78
2023-05-11T00:30:45.571Z,100734.88
2023-05-11T00:33:13.446Z,100740.72
2023-05-11T00:35:41.155Z,100737.03
2023-05-11T00:38:09.222Z,100738.47
2023-05-11T00:40:36.898Z,100737.53
2023-05-11T00:43:04.772Z,100739.28
2023-05-11T00:45:33.172Z,100742.41
2023-05-11T00:48:01.075Z,100745.09
2023-05-11T00:50:28.981Z,100740.34
2023-05-11T00:52:58.825Z,100746.31
2023-05-11T00:55:27.737Z,100741.75
2023-05-11T00:57:55.718Z,100746.91
2023-05-11T01:00:23.415Z,100730.41
2023-05-11T01:02:53.221Z,100731.91
2023-05-11T01:05:21.121Z,100743.00
2023-05-11T01:08:15.158Z,100739.66
2023-05-11T01:10:49.045Z,100734.78
2023-05-11T01:13:28.932Z,100749.75
2023-05-11T01:15:58.233Z,100736.91
2023-05-11T01:18:34.466Z,100742.59
2023-05-11T01:21:10.077Z,100744.16
2023-05-11T01:23:44.151Z,100750.56
2023-05-11T01:26:34.210Z,100738.66
2023-05-11T01:29:13.449Z,100743.78
2023-05-11T01:31:43.230Z,100732.50
2023-05-11T01:34:22.636Z,100740.75
2023-05-11T01:36:54.936Z,100743.09
2023-05-11T01:39:33.367Z,100741.34
2023-05-11T01:42:09.191Z,100748.09
2023-05-11T01:44:41.908Z,100752.63
2023-05-11T01:47:12.040Z,100745.72
2023-05-11T01:49:44.094Z,100761.97
2023-05-11T01:52:13.801Z,100748.22
2023-05-11T01:54:42.477Z,100742.06
2023-05-11T01:57:12.619Z,100752.03
2023-05-11T01:59:41.167Z,100742.22
2023-05-11T02:02:10.252Z,100755.72
2023-05-11T02:04:40.274Z,100758.66
2023-05-11T02:07:11.001Z,100762.06
2023-05-11T02:09:40.665Z,100755.41
2023-05-11T02:12:09.946Z,100767.00
2023-05-11T02:14:39.864Z,100770.78
2023-05-11T02:17:08.983Z,100765.31
2023-05-11T02:19:38.774Z,100771.38
2023-05-11T02:22:07.141Z,100769.31
2023-05-11T02:24:35.834Z,100767.66
2023-05-11T02:27:03.433Z,100765.53
2023-05-11T02:29:31.103Z,100758.69
2023-05-11T02:32:12.375Z,100775.13
2023-05-11T02:34:43.005Z,100772.78
2023-05-11T02:37:15.440Z,100772.03
2023-05-11T02:39:46.119Z,100769.97
2023-05-11T02:42:18.432Z,100767.09
2023-05-11T02:45:03.730Z,100773.22
2023-05-11T02:47:36.883Z,100774.53
2023-05-11T02:50:06.063Z,100768.44
2023-05-11T02:52:43.390Z,100767.13
2023-05-11T02:55:13.686Z,100776.97
2023-05-11T02:57:41.413Z,100767.72
2023-05-11T03:00:11.363Z,100776.75
2023-05-11T03:02:38.905Z,100777.97
2023-05-11T03:05:07.490Z,100781.16
2023-05-11T03:07:35.473Z,100778.44
2023-05-11T03:10:03.583Z,100775.88
2023-05-11T03:12:35.456Z,100769.50
2023-05-11T03:15:04.939Z,100772.38
2023-05-11T03:17:34.831Z,100782.22
2023-05-11T03:20:04.372Z,100776.13
2023-05-11T03:22:35.429Z,100771.00
2023-05-11T03:25:05.220Z,100779.41
2023-05-11T03:27:36.072Z,100784.28
2023-05-11T03:30:07.361Z,100785.47
2023-05-11T03:32:38.534Z,100788.06
2023-05-11T03:35:08.019Z,100778.09
2023-05-11T03:37:38.167Z,100785.34
2023-05-11T03:40:08.983Z,100785.34
2023-05-11T03:42:47.042Z,100798.28
2023-05-11T03:45:19.834Z,100797.41
2023-05-11T03:47:50.206Z,100802.69
2023-05-11T03:50:18.292Z,100799.47
2023-05-11T03:52:46.024Z,100802.06
2023-05-11T03:55:13.740Z,100812.50
2023-05-11T03:57:41.065Z,100807.41
2023-05-11T04:00:11.743Z,100810.94
2023-05-11T04:02:45.948Z,100819.56
2023-05-11T04:05:14.009Z,100806.13
2023-05-11T04:07:44.482Z,100803.75
2023-05-11T04:10:12.301Z,100808.16
2023-05-11T04:12:39.467Z,100817.75
2023-05-11T04:15:07.541Z,100813.34
2023-05-11T04:17:34.727Z,100813.31
2023-05-11T04:20:02.219Z,100805.22
2023-05-11T04:22:29.533Z,100808.50
2023-05-11T04:24:57.061Z,100806.50
2023-05-11T04:27:24.279Z,100811.91
2023-05-11T04:29:51.964Z,100817.66
2023-05-11T04:32:19.259Z,100819.69
2023-05-11T04:34:46.747Z,100826.63
2023-05-11T04:37:16.653Z,100820.75
2023-05-11T04:39:44.193Z,100817.38
2023-05-11T04:42:11.892Z,100830.31
2023-05-11T04:44:39.519Z,100829.91
2023-05-11T04:47:07.481Z,100826.66
2023-05-11T04:49:35.270Z,100823.94
2023-05-11T04:52:02.485Z,100834.38
2023-05-11T04:54:31.285Z,100828.25
2023-05-11T04:56:58.580Z,100835.38
2023-05-11T04:59:26.112Z,100836.69
2023-05-11T05:01:53.412Z,100823.66
2023-05-11T05:04:21.246Z,100842.94
2023-05-11T05:06:48.512Z,100838.31
2023-05-11T05:09:16.794Z,100843.00
2023-05-11T05:11:44.392Z,100857.97
2023-05-11T05:14:12.568Z,100850.94
2023-05-11T05:16:39.776Z,100865.81
2023-05-11T05:19:07.578Z,100867.66
2023-05-11T05:21:35.921Z,100861.19
2023-05-11T05:24:04.441Z,100852.03
2023-05-11T05:26:31.660Z,100859.50
2023-05-11T05:28:59.362Z,100854.00
2023-05-11T05:31:26.788Z,100861.75
2023-05-11T05:33:54.534Z,100858.22
2023-05-11T05:36:22.269Z,100862.03
2023-05-11T05:38:49.871Z,100862.63
2023-05-11T05:41:17.316Z,100874.63
2023-05-11T05:43:46.252Z,100873.41
2023-05-11T05:46:14.106Z,100886.50
2023-05-11T05:48:42.244Z,100881.53
2023-05-11T05:51:09.988Z,100892.13
2023-05-11T05:53:38.323Z,100879.72
2023-05-11T05:56:06.066Z,100889.56
2023-05-11T05:58:33.883Z,100881.19
2023-05-11T06:01:01.773Z,100880.41
2023-05-11T06:03:30.119Z,100871.06
2023-05-11T06:05:57.614Z,100878.97
2023-05-11T06:08:25.553Z,100891.31
2023-05-11T06:10:52.771Z,100889.56
2023-05-11T06:13:20.400Z,100891.78
2023-05-11T06:15:47.837Z,100897.78
2023-05-11T06:18:24.340Z,100887.25
2023-05-11T06:20:52.179Z,100878.25
2023-05-11T06:23:20.114Z,100890.69
2023-05-11T06:25:48.021Z,100892.06
2023-05-11T06:28:15.593Z,100888.34
2023-05-11T06:30:42.823Z,100889.25
2023-05-11T06:33:10.943Z,100900.19
2023-05-11T06:35:39.741Z,100889.59
2023-05-11T06:38:09.578Z,100888.81
2023-05-11T06:40:37.338Z,100885.28
2023-05-11T06:43:04.994Z,100895.84
2023-05-11T06:45:47.894Z,100895.00
2023-05-11T06:48:16.139Z,100900.94
2023-05-11T06:50:43.416Z,100889.13
2023-05-11T06:53:14.178Z,100889.63
2023-05-11T06:55:41.700Z,100893.38
2023-05-11T06:58:09.284Z,100900.38
2023-05-11T07:00:36.480Z,100906.91
2023-05-11T07:03:04.734Z,100879.31
2023-05-11T07:05:32.076Z,100891.81
2023-05-11T07:07:59.603Z,100892.91
2023-05-11T07:10:26.949Z,100892.00
2023-05-11T07:12:54.421Z,100899.97
2023-05-11T07:15:21.715Z,100895.44
2023-05-11T07:17:49.900Z,100899.69
2023-05-11T07:20:20.535Z,100893.47
2023-05-11T07:22:48.204Z,100895.84
2023-05-11T07:25:15.449Z,100913.44
2023-05-11T07:27:43.091Z,100889.06
2023-05-11T07:30:10.809Z,100900.13
2023-05-11T07:32:38.892Z,100898.56
2023-05-11T07:35:09.753Z,100888.72
2023-05-11T07:37:37.340Z,100905.53
2023-05-11T07:40:05.088Z,100907.66
2023-05-11T07:42:32.696Z,100899.06
2023-05-11T07:44:59.919Z,100894.75
2023-05-11T07:47:27.446Z,100897.47
2023-05-11T07:49:54.714Z,100894.56
2023-05-11T07:52:22.194Z,100897.34
2023-05-11T07:54:49.361Z,100894.50
2023-05-11T07:57:17.126Z,100902.66
2023-05-11T07:59:44.328Z,100892.47
2023-05-11T08:02:13.436Z,100884.66
2023-05-11T08:04:40.860Z,100902.06
2023-05-11T08:07:09.028Z,100890.09
2023-05-11T08:09:36.956Z,100888.06
2023-05-11T08:12:04.756Z,100882.88
2023-05-11T08:14:32.379Z,100878.31
2023-05-11T08:16:59.973Z,100890.19
2023-05-11T08:19:27.540Z,100900.16
2023-05-11T08:21:55.373Z,100891.72
2023-05-11T08:24:22.583Z,100888.44
2023-05-11T08:26:50.079Z,100897.81
2023-05-11T08:29:17.326Z,100877.13
2023-05-11T08:31:44.856Z,100889.84
2023-05-11T08:34:19.175Z,100883.16
2023-05-11T08:36:47.910Z,100898.28
2023-05-11T08:39:24.675Z,100893.53
2023-05-11T08:42:02.949Z,100881.63
2023-05-11T08:44:33.006Z,100887.06
2023-05-11T08:47:18.907Z,100882.84
2023-05-11T08:49:48.499Z,100879.31
2023-05-11T08:52:18.368Z,100884.13
2023-05-11T08:54:46.620Z,100871.66
2023-05-11T08:57:14.991Z,100879.75
2023-05-11T08:59:45.952Z,100883.78
2023-05-11T09:02:18.979Z,100866.53
2023-05-11T09:04:48.972Z,100889.75
2023-05-11T09:07:18.703Z,100884.69
2023-05-11T09:09:47.686Z,100872.50
2023-05-11T09:12:16.589Z,100883.56
2023-05-11T09:14:44.313Z,100886.88
2023-05-11T09:17:12.245Z,100884.94
2023-05-11T09:19:58.166Z,100880.16
2023-05-11T09:22:27.743Z,100895.28
2023-05-11T09:24:56.710Z,100884.38
2023-05-11T09:27:25.182Z,100872.22
2023-05-11T09:29:54.341Z,100874.72
2023-05-11T09:32:22.065Z,100868.03
2023-05-11T09:34:50.281Z,100877.78
2023-05-11T09:37:18.855Z,100867.47
2023-05-11T09:40:14.018Z,100866.78
2023-05-11T09:42:34.072Z,100867.94
2023-05-11T09:45:01.308Z,100863.72
2023-05-11T09:47:40.209Z,100860.56
2023-05-11T09:50:17.269Z,100874.47
2023-05-11T09:52:54.347Z,100865.81
2023-05-11T09:55:21.657Z,100865.06
2023-05-11T09:57:57.494Z,100862.09
2023-05-11T10:00:25.491Z,100865.41
2023-05-11T10:03:05.085Z,100865.53
2023-05-11T10:05:36.276Z,100863.56
2023-05-11T10:08:05.486Z,100853.91
2023-05-11T10:10:33.837Z,100851.56
2023-05-11T10:13:03.524Z,100849.75
2023-05-11T10:15:35.377Z,100838.81
2023-05-11T10:18:03.229Z,100848.88
2023-05-11T10:20:30.506Z,100855.53
2023-05-11T10:22:58.188Z,100864.72
2023-05-11T10:25:29.107Z,100862.44
2023-05-11T10:27:57.742Z,100838.22
2023-05-11T10:30:25.082Z,100842.78
2023-05-11T10:32:53.419Z,100840.13
2023-05-11T10:35:21.536Z,100833.25
2023-05-11T10:37:50.613Z,100828.16
2023-05-11T10:40:18.394Z,100849.56
2023-05-11T10:43:01.156Z,100855.94
2023-05-11T10:45:43.635Z,100850.47
2023-05-11T10:48:20.271Z,100837.13
2023-05-11T10:51:12.503Z,100825.91
2023-05-11T10:53:52.599Z,100828.22
2023-05-11T10:56:26.101Z,100838.22
2023-05-11T10:59:18.600Z,100826.91
2023-05-11T11:01:46.940Z,100829.00
2023-05-11T11:04:14.569Z,100836.56
2023-05-11T11:06:43.704Z,100845.16
2023-05-11T11:09:16.494Z,100821.25
2023-05-11T11:11:51.089Z,100826.03
2023-05-11T11:14:19.332Z,100821.94
2023-05-11T11:17:15.977Z,100830.72
2023-05-11T11:19:43.709Z,100814.84
2023-05-11T11:22:36.130Z,100818.59
2023-05-11T11:25:05.815Z,100828.81
2023-05-11T11:27:40.044Z,100846.59
2023-05-11T11:30:28.911Z,100824.03
2023-05-11T11:33:08.544Z,100828.31
2023-05-11T11:35:42.281Z,100811.44
2023-05-11T11:38:20.663Z,100818.91
2023-05-11T11:40:53.092Z,100824.75
2023-05-11T11:43:26.260Z,100823.81
2023-05-11T11:45:55.866Z,100822.31
2023-05-11T11:48:35.815Z,100820.91
2023-05-11T11:51:11.537Z,100824.84
2023-05-11T11:53:41.559Z,100822.28
2023-05-11T11:56:28.981Z,100822.34
2023-05-11T11:58:56.165Z,100838.34
2023-05-11T12:01:26.999Z,100838.44
2023-05-11T12:04:32.082Z,100821.56
2023-05-11T12:06:59.868Z,100828.28
2023-05-11T12:09:27.626Z,100837.41
2023-05-11T12:11:56.504Z,100811.41
2023-05-11T12:14:24.020Z,100817.59
2023-05-11T12:17:05.697Z,100809.16
2023-05-11T12:19:33.179Z,100814.69
2023-05-11T12:22:01.501Z,100817.69
2023-05-11T12:24:28.717Z,100832.56
2023-05-11T12:26:57.575Z,100827.44
2023-05-11T12:29:25.162Z,100823.31
2023-05-11T12:31:53.007Z,100819.63
2023-05-11T12:34:22.841Z,100824.00
2023-05-11T12:36:52.921Z,100823.88
2023-05-11T12:39:25.138Z,100829.25
2023-05-11T12:41:55.666Z,100816.66
2023-05-11T12:44:25.552Z,100826.47
2023-05-11T12:46:53.494Z,100810.63
2023-05-11T12:49:26.418Z,100808.19
2023-05-11T12:51:57.665Z,100829.72
2023-05-11T12:54:33.031Z,100814.88
2023-05-11T12:57:02.030Z,100819.50
2023-05-11T12:59:32.295Z,100814.56
2023-05-11T13:02:16.214Z,100822.38
2023-05-11T13:04:45.214Z,100786.03
2023-05-11T13:07:15.186Z,100807.94
2023-05-11T13:09:42.791Z,100788.00
2023-05-11T13:12:17.500Z,100800.75
2023-05-11T13:14:50.987Z,100807.75
2023-05-11T13:17:35.308Z,100799.72
2023-05-11T13:20:27.491Z,100781.47
2023-05-11T13:23:13.314Z,100788.03
2023-05-11T13:25:47.297Z,100790.88
2023-05-11T13:28:16.226Z,100780.06
2023-05-11T13:30:44.097Z,100788.88
2023-05-11T13:33:11.745Z,100784.84
2023-05-11T13:35:42.970Z,100785.56
2023-05-11T13:38:11.261Z,100787.34
2023-05-11T13:40:38.984Z,100765.78
2023-05-11T13:43:07.538Z,100784.47
2023-05-11T13:45:36.555Z,100801.91
2023-05-11T13:48:04.511Z,100784.16
2023-05-11T13:50:32.397Z,100795.38
2023-05-11T13:52:59.910Z,100782.69
2023-05-11T13:55:29.387Z,100770.94
2023-05-11T13:57:57.177Z,100778.09
2023-05-11T14:00:24.589Z,100778.47
2023-05-11T14:02:53.029Z,100785.97
2023-05-11T14:05:23.033Z,100777.22
2023-05-11T14:07:50.733Z,100775.75
2023-05-11T14:10:18.569Z,100778.59
2023-05-11T14:12:46.431Z,100778.19
2023-05-11T14:15:14.167Z,100787.34
2023-05-11T14:17:43.252Z,100786.47
2023-05-11T14:20:12.174Z,100774.91
2023-05-11T14:22:43.096Z,100790.91
2023-05-11T14:25:10.807Z,100763.00
2023-05-11T14:27:38.448Z,100777.00
2023-05-11T14:30:07.458Z,100776.06
2023-05-11T14:32:35.062Z,100769.75
2023-05-11T14:35:02.417Z,100768.44
2023-05-11T14:37:29.903Z,100765.41
2023-05-11T14:39:57.175Z,100762.34
2023-05-11T14:42:24.710Z,100755.44
2023-05-11T14:44:51.897Z,100775.22
2023-05-11T14:47:19.445Z,100768.97
2023-05-11T14:49:46.644Z,100755.19
2023-05-11T14:52:14.163Z,100759.53
2023-05-11T14:54:42.610Z,100770.28
2023-05-11T14:57:10.203Z,100773.16
2023-05-11T14:59:47.692Z,100775.28
2023-05-11T15:02:19.057Z,100757.63
2023-05-11T15:04:46.377Z,100772.75
2023-05-11T15:07:14.500Z,100775.38
2023-05-11T15:09:41.713Z,100772.84
2023-05-11T15:12:09.302Z,100776.06
2023-05-11T15:14:36.464Z,100770.75
2023-05-11T15:17:04.048Z,100773.38
2023-05-11T15:19:31.237Z,100759.03
2023-05-11T15:21:59.232Z,100769.84
2023-05-11T15:24:26.734Z,100770.66
2023-05-11T15:26:54.261Z,100755.19
2023-05-11T15:29:22.366Z,100752.47
2023-05-11T15:31:49.950Z,100762.06
2023-05-11T15:34:17.413Z,100764.75
2023-05-11T15:36:46.268Z,100769.91
2023-05-11T15:39:13.498Z,100766.50
2023-05-11T15:41:41.086Z,100761.66
2023-05-11T15:44:08.288Z,100764.50
2023-05-11T15:46:36.557Z,100773.44
2023-05-11T15:49:03.874Z,100776.50
2023-05-11T15:51:32.065Z,100769.25
2023-05-11T15:53:59.472Z,100764.88
2023-05-11T15:56:27.116Z,100766.84
2023-05-11T15:58:54.304Z,100769.81
2023-05-11T16:01:22.325Z,100755.81
2023-05-11T16:03:49.877Z,100761.66
2023-05-11T16:06:17.442Z,100780.38
2023-05-11T16:08:45.059Z,100768.88
2023-05-11T16:11:12.573Z,100772.84
2023-05-11T16:13:39.827Z,100776.78
2023-05-11T16:16:07.456Z,100774.31
2023-05-11T16:18:34.957Z,100778.88
2023-05-11T16:21:04.199Z,100779.88
2023-05-11T16:23:31.832Z,100760.84
2023-05-11T16:26:00.301Z,100773.34
2023-05-11T16:28:27.458Z,100767.47
2023-05-11T16:30:57.830Z,100777.09
2023-05-11T16:33:26.498Z,100768.97
2023-05-11T16:35:54.015Z,100760.34
2023-05-11T16:38:22.441Z,100767.41
2023-05-11T16:40:50.441Z,100768.63
2023-05-11T16:43:17.809Z,100755.34
2023-05-11T16:45:45.857Z,100760.50
2023-05-11T16:48:13.211Z,100757.56
2023-05-11T16:50:40.774Z,100767.66
2023-05-11T16:53:08.841Z,100778.88
2023-05-11T16:55:36.381Z,100771.06
2023-05-11T16:58:03.625Z,100772.47
2023-05-11T17:00:34.078Z,100772.66
2023-05-11T17:03:01.909Z,100761.94
2023-05-11T17:05:29.507Z,100769.03
2023-05-11T17:07:56.849Z,100774.13
2023-05-11T17:10:24.611Z,100765.53
2023-05-11T17:12:52.145Z,100781.06
2023-05-11T17:15:19.687Z,100777.56
2023-05-11T17:17:46.978Z,100779.31
2023-05-11T17:20:14.633Z,100775.75
2023-05-11T17:22:42.132Z,100775.63
2023-05-11T17:25:09.914Z,100775.81
2023-05-11T17:27:37.614Z,100777.25
2023-05-11T17:30:06.622Z,100790.56
2023-05-11T17:32:34.250Z,100784.47
2023-05-11T17:35:02.186Z,100786.44
2023-05-11T17:37:32.271Z,100782.41
2023-05-11T17:40:01.297Z,100786.22
2023-05-11T17:42:28.722Z,100787.97
2023-05-11T17:44:56.596Z,100790.69
2023-05-11T17:47:24.269Z,100803.63
2023-05-11T17:49:52.033Z,100797.63
2023-05-11T17:52:19.262Z,100801.75
2023-05-11T17:54:46.855Z,100806.13
2023-05-11T17:57:14.104Z,100807.50
2023-05-11T17:59:41.675Z,100804.47
2023-05-11T18:02:09.565Z,100808.53
2023-05-11T18:04:37.316Z,100812.97
2023-05-11T18:07:04.711Z,100809.22
2023-05-11T18:09:32.196Z,100804.81
2023-05-11T18:11:59.467Z,100802.47
2023-05-11T18:14:27.892Z,100820.44
2023-05-11T18:16:55.128Z,100821.97
2023-05-11T18:19:22.645Z,100815.19
2023-05-11T18:21:51.909Z,100820.28
2023-05-11T18:24:19.827Z,100819.09
2023-05-11T18:26:47.118Z,100834.34
2023-05-11T18:29:19.278Z,100823.69
2023-05-11T18:31:46.886Z,100832.47
2023-05-11T18:34:14.369Z,100826.25
2023-05-11T18:36:42.192Z,100829.78
2023-05-11T18:39:09.703Z,100830.38
2023-05-11T18:41:37.053Z,100824.13
2023-05-11T18:44:04.789Z,100826.81
2023-05-11T18:46:32.314Z,100827.25
2023-05-11T18:48:59.854Z,100842.53
2023-05-11T18:51:27.030Z,100837.88
2023-05-11T18:53:54.908Z,100846.75
2023-05-11T18:56:22.503Z,100842.66
2023-05-11T18:58:50.507Z,100843.66
2023-05-11T19:01:18.841Z,100856.50
2023-05-11T19:03:47.173Z,100853.59
2023-05-11T19:06:14.460Z,100849.25
2023-05-11T19:08:42.310Z,100855.13
2023-05-11T19:11:10.731Z,100866.25
2023-05-11T19:13:38.426Z,100877.16
2023-05-11T19:16:05.907Z,100860.84
2023-05-11T19:18:35.708Z,100865.94
2023-05-11T19:21:04.997Z,100867.97
2023-05-11T19:23:33.565Z,100870.72
2023-05-11T19:26:00.957Z,100875.91
2023-05-11T19:28:28.552Z,100875.28
2023-05-11T19:31:03.536Z,100874.66
2023-05-11T19:33:31.470Z,100875.13
2023-05-11T19:35:59.156Z,100883.53
2023-05-11T19:38:26.993Z,100880.75
2023-05-11T19:40:54.361Z,100890.44
2023-05-11T19:43:23.712Z,100885.09
2023-05-11T19:45:51.017Z,100889.66
2023-05-11T19:48:19.144Z,100889.94
2023-05-11T19:50:47.072Z,100889.94
2023-05-11T19:53:15.050Z,100891.66
2023-05-11T19:55:42.352Z,100889.53
2023-05-11T19:58:10.677Z,100884.94
2023-05-11T20:00:41.066Z,100888.38
2023-05-11T20:03:09.099Z,100888.81
2023-05-11T20:05:36.967Z,100890.13
2023-05-11T20:08:07.911Z,100892.31
2023-05-11T20:10:36.009Z,100892.53
2023-05-11T20:13:05.619Z,100893.69
2023-05-11T20:15:34.139Z,100897.53
2023-05-11T20:18:05.275Z,100900.50
2023-05-11T20:20:32.781Z,100901.97
2023-05-11T20:23:03.611Z,100901.66
2023-05-11T20:25:31.137Z,100897.19
2023-05-11T20:27:58.722Z,100897.72
2023-05-11T20:30:25.993Z,100904.63
2023-05-11T20:35:23.685Z,100907.03
2023-05-11T20:37:51.193Z,100913.84
2023-05-11T20:40:18.858Z,100916.09
2023-05-11T20:42:46.710Z,100904.75
2023-05-11T20:45:14.013Z,100912.84
2023-05-11T20:47:41.664Z,100915.03
2023-05-11T20:50:10.212Z,100905.03
2023-05-11T20:52:37.903Z,100915.72
2023-05-11T20:55:06.170Z,100903.81
2023-05-11T20:57:33.722Z,100922.91
2023-05-11T21:02:31.704Z,100927.94
2023-05-11T21:05:02.141Z,100917.75
2023-05-11T21:07:30.119Z,100922.47
2023-05-11T21:09:57.478Z,100926.31
2023-05-11T21:12:25.089Z,100932.09
2023-05-11T21:14:52.494Z,100940.91
2023-05-11T21:17:21.628Z,100936.19
2023-05-11T21:19:48.825Z,100943.34
2023-05-11T21:22:16.287Z,100951.06
2023-05-11T21:24:43.512Z,100939.28
2023-05-11T21:27:11.337Z,100932.75
2023-05-11T21:29:38.505Z,100952.63
2023-05-11T21:32:06.874Z,100944.06
2023-05-11T21:34:34.063Z,100935.53
2023-05-11T21:37:03.447Z,100946.72
2023-05-11T21:39:30.695Z,100946.66
2023-05-11T21:41:58.267Z,100946.13
2023-05-11T21:44:25.498Z,100953.78
2023-05-11T21:46:53.201Z,100952.69
2023-05-11T21:49:20.466Z,100954.56
2023-05-11T21:51:48.834Z,100955.47
2023-05-11T21:54:16.244Z,100956.94
2023-05-11T21:56:43.717Z,100963.53
2023-05-11T21:59:10.959Z,100967.81
2023-05-11T22:01:38.517Z,100962.16
2023-05-11T22:04:05.932Z,100966.16
2023-05-11T22:06:33.573Z,100967.63
2023-05-11T22:09:00.839Z,100964.72
2023-05-11T22:11:28.371Z,100970.88
2023-05-11T22:13:55.655Z,100974.81
2023-05-11T22:16:23.271Z,100968.16
2023-05-11T22:18:50.975Z,100969.00
2023-05-11T22:21:18.507Z,100974.34
2023-05-11T22:23:45.696Z,100974.03
2023-05-11T22:26:13.254Z,100969.06
2023-05-11T22:28:41.252Z,100982.13
2023-05-11T22:31:08.747Z,100979.88
2023-05-11T22:33:35.953Z,100964.56
2023-05-11T22:36:03.839Z,100975.03
2023-05-11T22:38:32.741Z,100979.44
2023-05-11T22:41:00.866Z,100968.38
2023-05-11T22:43:28.756Z,100977.19
2023-05-11T22:45:56.279Z,100987.84
2023-05-11T22:48:23.569Z,100990.81
2023-05-11T22:50:51.163Z,100984.84
2023-05-11T22:53:20.070Z,100987.84
2023-05-11T22:55:47.845Z,100994.69
2023-05-11T22:58:15.333Z,100985.44
2023-05-11T23:00:43.115Z,100994.38
2023-05-11T23:03:10.562Z,100986.84
2023-05-11T23:05:38.361Z,100987.44
2023-05-11T23:08:05.527Z,100999.25
2023-05-11T23:10:33.202Z,100992.72
2023-05-11T23:13:00.510Z,100987.31
2023-05-11T23:15:27.729Z,101000.69
2023-05-11T23:17:55.272Z,100992.16
2023-05-11T23:20:22.918Z,100998.56
2023-05-11T23:22:50.402Z,100996.28
2023-05-11T23:25:17.658Z,100988.31
2023-05-11T23:27:45.108Z,100979.94
2023-05-11T23:30:12.888Z,100999.00
2023-05-11T23:32:40.434Z,101004.09
2023-05-11T23:35:08.204Z,101001.56
2023-05-11T23:37:35.701Z,101002.69
2023-05-11T23:40:03.023Z,101007.63
2023-05-11T23:42:30.651Z,100998.84
2023-05-11T23:45:00.032Z,100993.84
2023-05-11T23:47:28.362Z,101005.78
2023-05-11T23:49:55.597Z,100994.44
2023-05-11T23:52:23.374Z,101007.50
2023-05-11T23:54:52.536Z,100994.97
2023-05-11T23:57:20.087Z,101004.06
2023-05-11T23:59:47.324Z,100994.28
